createdAt,value
2017-10-05T00:00:10.439Z,11.30
2017-10-05T00:02:42.496Z,11.50
2017-10-05T00:05:12.675Z,11.50
2017-10-05T00:07:43.422Z,11.50
2017-10-05T00:10:14.358Z,11.60
2017-10-05T00:12:44.479Z,11.50
2017-10-05T00:15:14.543Z,11.50
2017-10-05T00:17:46.176Z,11.60
2017-10-05T00:20:16.032Z,11.60
2017-10-05T00:22:47.243Z,11.80
2017-10-05T00:25:17.705Z,11.80
2017-10-05T00:27:48.321Z,11.70
2017-10-05T00:30:19.945Z,11.80
2017-10-05T00:32:52.073Z,11.60
2017-10-05T00:35:23.624Z,11.80
2017-10-05T00:37:54.683Z,11.80
2017-10-05T00:40:25.065Z,11.80
2017-10-05T00:42:56.060Z,11.90
2017-10-05T00:45:27.287Z,11.70
2017-10-05T00:47:58.014Z,11.70
2017-10-05T00:50:29.371Z,11.80
2017-10-05T00:52:59.563Z,11.70
2017-10-05T00:55:30.172Z,11.60
2017-10-05T00:58:01.526Z,11.70
2017-10-05T01:00:32.208Z,11.70
2017-10-05T01:03:03.421Z,11.80
2017-10-05T01:05:35.306Z,11.90
2017-10-05T01:08:07.294Z,11.90
2017-10-05T01:10:38.392Z,12.00
2017-10-05T01:13:09.528Z,12.00
2017-10-05T01:15:40.780Z,11.90
2017-10-05T01:18:12.102Z,11.80
2017-10-05T01:20:42.685Z,11.80
2017-10-05T01:23:13.291Z,11.70
2017-10-05T01:25:44.275Z,11.70
2017-10-05T01:28:16.435Z,11.90
2017-10-05T01:30:48.172Z,11.90
2017-10-05T01:33:20.104Z,12.00
2017-10-05T01:35:51.385Z,11.90
2017-10-05T01:38:22.385Z,12.00
2017-10-05T01:40:53.547Z,11.80
2017-10-05T01:43:24.337Z,11.70
2017-10-05T01:45:55.845Z,11.60
2017-10-05T01:48:27.635Z,11.30
2017-10-05T01:50:58.715Z,11.20
2017-10-05T01:53:30.620Z,11.40
2017-10-05T01:56:02.250Z,11.50
2017-10-05T01:58:33.958Z,11.50
2017-10-05T02:01:06.546Z,11.70
2017-10-05T02:03:38.095Z,11.80
2017-10-05T02:06:08.804Z,11.90
2017-10-05T02:08:40.066Z,11.70
2017-10-05T02:11:11.760Z,11.70
2017-10-05T02:13:42.786Z,11.70
2017-10-05T02:16:13.708Z,11.70
2017-10-05T02:18:46.020Z,11.70
2017-10-05T02:21:17.268Z,11.60
2017-10-05T02:23:48.255Z,11.70
2017-10-05T02:26:18.890Z,11.80
2017-10-05T02:28:51.635Z,11.70
2017-10-05T02:31:23.495Z,11.70
2017-10-05T02:33:54.509Z,11.70
2017-10-05T02:36:26.335Z,11.70
2017-10-05T02:38:57.393Z,11.70
2017-10-05T02:41:28.259Z,11.60
2017-10-05T02:44:01.580Z,11.60
2017-10-05T02:46:32.710Z,11.40
2017-10-05T02:49:03.620Z,11.40
2017-10-05T02:51:34.201Z,11.40
2017-10-05T02:54:05.309Z,11.50
2017-10-05T02:56:36.236Z,11.50
2017-10-05T02:59:07.185Z,11.50
2017-10-05T03:01:38.092Z,11.50
2017-10-05T03:04:09.436Z,11.40
2017-10-05T03:06:40.682Z,11.30
2017-10-05T03:09:12.190Z,11.50
2017-10-05T03:11:42.643Z,11.40
2017-10-05T03:14:15.085Z,11.40
2017-10-05T03:16:46.404Z,11.40
2017-10-05T03:19:17.115Z,11.40
2017-10-05T03:21:47.569Z,11.40
2017-10-05T03:24:20.160Z,11.70
2017-10-05T03:26:50.123Z,11.60
2017-10-05T03:29:21.694Z,11.50
2017-10-05T03:31:52.459Z,11.50
2017-10-05T03:34:23.413Z,11.60
2017-10-05T03:36:54.102Z,11.50
2017-10-05T03:39:25.954Z,11.40
2017-10-05T03:41:56.430Z,11.50
2017-10-05T03:44:27.839Z,11.60
2017-10-05T03:46:59.336Z,11.60
2017-10-05T03:49:29.986Z,11.70
2017-10-05T03:52:01.180Z,11.60
2017-10-05T03:54:33.061Z,11.70
2017-10-05T03:57:03.487Z,11.80
2017-10-05T03:59:34.507Z,11.80
2017-10-05T04:02:05.896Z,11.70
2017-10-05T04:04:36.989Z,11.50
2017-10-05T04:07:08.461Z,11.50
2017-10-05T04:09:40.408Z,11.50
2017-10-05T04:12:11.926Z,11.40
2017-10-05T04:14:43.756Z,11.30
2017-10-05T04:17:15.347Z,11.20
2017-10-05T04:19:46.649Z,11.10
2017-10-05T04:22:17.885Z,11.20
2017-10-05T04:24:49.432Z,11.20
2017-10-05T04:27:20.834Z,11.20
2017-10-05T04:29:51.539Z,11.40
2017-10-05T04:32:22.830Z,11.40
2017-10-05T04:34:55.121Z,11.40
2017-10-05T04:37:27.300Z,11.50
2017-10-05T04:40:00.499Z,11.50
2017-10-05T04:42:31.221Z,11.40
2017-10-05T04:45:01.917Z,11.40
2017-10-05T04:47:32.614Z,11.40
2017-10-05T04:50:03.253Z,11.40
2017-10-05T04:52:34.074Z,11.70
2017-10-05T04:55:04.747Z,11.70
2017-10-05T04:57:35.789Z,11.80
2017-10-05T05:00:05.874Z,11.80
2017-10-05T05:02:36.803Z,11.80
2017-10-05T05:05:07.504Z,11.80
2017-10-05T05:07:37.435Z,12.00
2017-10-05T05:10:07.919Z,12.00
2017-10-05T05:12:40.741Z,12.30
2017-10-05T05:15:11.602Z,12.20
2017-10-05T05:17:41.311Z,12.30
2017-10-05T05:20:10.934Z,12.30
2017-10-05T05:22:40.623Z,12.10
2017-10-05T05:25:11.036Z,12.10
2017-10-05T05:27:41.798Z,12.10
2017-10-05T05:30:12.840Z,12.30
2017-10-05T05:32:44.927Z,12.30
2017-10-05T05:35:14.639Z,12.30
2017-10-05T05:37:44.750Z,12.40
2017-10-05T05:40:15.641Z,12.70
2017-10-05T05:42:46.132Z,12.70
2017-10-05T05:45:17.686Z,12.80
2017-10-05T05:47:48.982Z,12.90
2017-10-05T05:50:18.876Z,12.90
2017-10-05T05:52:49.456Z,13.00
2017-10-05T05:55:20.055Z,13.00
2017-10-05T05:57:50.376Z,13.00
2017-10-05T06:00:20.087Z,13.10
2017-10-05T06:02:50.059Z,13.10
2017-10-05T06:05:19.732Z,13.10
2017-10-05T06:07:50.207Z,13.10
2017-10-05T06:10:20.371Z,13.20
2017-10-05T06:12:49.922Z,13.30
2017-10-05T06:15:20.280Z,13.50
2017-10-05T06:17:50.063Z,13.40
2017-10-05T06:20:21.061Z,13.50
2017-10-05T06:22:51.504Z,13.50
2017-10-05T06:25:21.883Z,13.50
2017-10-05T06:27:51.832Z,13.60
2017-10-05T06:30:22.664Z,13.70
2017-10-05T06:32:53.175Z,13.80
2017-10-05T06:35:23.026Z,13.80
2017-10-05T06:37:52.756Z,14.00
2017-10-05T06:40:24.287Z,14.10
2017-10-05T06:42:54.709Z,14.30
2017-10-05T06:45:25.066Z,14.40
2017-10-05T06:47:54.613Z,14.40
2017-10-05T06:50:24.364Z,14.60
2017-10-05T06:52:54.761Z,14.70
2017-10-05T06:55:25.382Z,14.90
2017-10-05T06:57:55.438Z,14.90
2017-10-05T07:00:25.120Z,15.00
2017-10-05T07:02:56.370Z,15.00
2017-10-05T07:05:27.947Z,15.00
2017-10-05T07:08:00.463Z,15.10
2017-10-05T07:10:30.942Z,15.10
2017-10-05T07:13:00.571Z,15.30
2017-10-05T07:15:31.002Z,15.80
2017-10-05T07:18:01.469Z,15.80
2017-10-05T07:20:31.057Z,15.70
2017-10-05T07:23:02.363Z,16.40
2017-10-05T07:25:32.772Z,16.80
2017-10-05T07:28:02.399Z,16.80
2017-10-05T07:30:32.431Z,16.80
2017-10-05T07:33:03.722Z,17.70
2017-10-05T07:35:33.347Z,17.70
2017-10-05T07:38:02.934Z,19.70
2017-10-05T07:40:32.424Z,20.60
2017-10-05T07:43:02.273Z,20.30
2017-10-05T07:45:32.078Z,20.20
2017-10-05T07:48:01.630Z,20.00
2017-10-05T07:50:32.997Z,19.70
2017-10-05T07:53:03.302Z,20.00
2017-10-05T07:55:32.827Z,19.90
2017-10-05T07:58:03.125Z,19.40
2017-10-05T08:00:32.667Z,19.40
2017-10-05T08:03:02.359Z,19.10
2017-10-05T08:05:33.496Z,18.30
2017-10-05T08:08:03.927Z,18.20
2017-10-05T08:10:34.747Z,18.60
2017-10-05T08:13:04.382Z,18.60
2017-10-05T08:15:34.355Z,18.20
2017-10-05T08:18:03.927Z,17.90
2017-10-05T08:20:33.457Z,17.80
2017-10-05T08:23:03.003Z,17.70
2017-10-05T08:25:32.556Z,18.00
2017-10-05T08:28:02.179Z,18.30
2017-10-05T08:30:31.684Z,18.10
2017-10-05T08:33:01.194Z,18.10
2017-10-05T08:35:31.046Z,17.90
2017-10-05T08:38:01.316Z,18.20
2017-10-05T08:40:30.946Z,18.20
2017-10-05T08:43:00.480Z,18.10
2017-10-05T08:45:30.819Z,18.30
2017-10-05T08:48:00.399Z,18.30
2017-10-05T08:50:31.259Z,18.50
2017-10-05T08:53:01.228Z,18.50
2017-10-05T08:55:31.150Z,18.50
2017-10-05T08:58:00.705Z,18.60
2017-10-05T09:00:31.076Z,18.00
2017-10-05T09:03:01.447Z,18.10
2017-10-05T09:05:31.741Z,18.10
2017-10-05T09:08:01.384Z,18.10
2017-10-05T09:10:31.762Z,18.00
2017-10-05T09:13:02.126Z,18.30
2017-10-05T09:15:32.899Z,18.40
2017-10-05T09:18:02.475Z,18.40
2017-10-05T09:20:32.772Z,18.80
2017-10-05T09:23:03.833Z,19.00
2017-10-05T09:25:34.404Z,18.80
2017-10-05T09:28:05.867Z,18.80
2017-10-05T09:30:36.187Z,19.00
2017-10-05T09:33:06.444Z,19.00
2017-10-05T09:35:36.228Z,19.50
2017-10-05T09:38:05.974Z,19.90
2017-10-05T09:40:35.582Z,20.50
2017-10-05T09:43:05.933Z,21.70
2017-10-05T09:45:35.511Z,21.70
2017-10-05T09:48:05.175Z,22.30
2017-10-05T09:50:35.850Z,22.20
2017-10-05T09:53:05.488Z,22.20
2017-10-05T09:55:35.210Z,22.10
2017-10-05T09:58:05.548Z,21.80
2017-10-05T10:00:36.008Z,21.80
2017-10-05T10:03:05.678Z,21.80
2017-10-05T10:05:36.341Z,22.00
2017-10-05T10:08:06.102Z,22.00
2017-10-05T10:10:37.769Z,21.60
2017-10-05T10:13:07.303Z,21.50
2017-10-05T10:15:36.841Z,21.40
2017-10-05T10:18:06.518Z,21.20
2017-10-05T10:20:36.055Z,20.30
2017-10-05T10:23:05.980Z,19.90
2017-10-05T10:25:35.919Z,20.10
2017-10-05T10:28:06.230Z,21.10
2017-10-05T10:30:35.831Z,21.10
2017-10-05T10:33:05.763Z,21.40
2017-10-05T10:35:35.298Z,21.50
2017-10-05T10:38:04.991Z,20.90
2017-10-05T10:40:34.890Z,21.30
2017-10-05T10:43:05.275Z,22.10
2017-10-05T10:45:34.780Z,22.10
2017-10-05T10:48:04.627Z,21.80
2017-10-05T10:50:34.224Z,21.70
2017-10-05T10:53:04.669Z,21.30
2017-10-05T10:55:35.375Z,21.30
2017-10-05T10:58:04.981Z,21.30
2017-10-05T11:00:34.643Z,21.30
2017-10-05T11:03:05.588Z,22.50
2017-10-05T11:05:36.209Z,23.30
2017-10-05T11:08:05.827Z,23.30
2017-10-05T11:10:35.911Z,23.90
2017-10-05T11:13:06.244Z,24.70
2017-10-05T11:15:36.564Z,25.30
2017-10-05T11:18:07.176Z,25.20
2017-10-05T11:20:36.891Z,25.20
2017-10-05T11:23:06.494Z,25.20
2017-10-05T11:25:36.157Z,24.90
2017-10-05T11:28:05.690Z,24.50
2017-10-05T11:30:35.516Z,24.50
2017-10-05T11:33:05.061Z,25.00
2017-10-05T11:35:34.647Z,25.50
2017-10-05T11:38:04.648Z,26.00
2017-10-05T11:40:34.317Z,25.90
2017-10-05T11:43:03.946Z,25.10
2017-10-05T11:45:33.799Z,24.80
2017-10-05T11:48:03.364Z,24.90
2017-10-05T11:50:33.090Z,25.70
2017-10-05T11:53:04.739Z,25.90
2017-10-05T11:55:34.403Z,25.90
2017-10-05T11:58:04.044Z,26.20
2017-10-05T12:00:33.956Z,26.20
2017-10-05T12:03:03.497Z,26.50
2017-10-05T12:05:33.125Z,26.70
2017-10-05T12:08:04.012Z,27.50
2017-10-05T12:10:33.642Z,27.50
2017-10-05T12:13:03.378Z,27.90
2017-10-05T12:15:33.711Z,28.60
2017-10-05T12:18:04.119Z,28.60
2017-10-05T12:20:34.542Z,29.00
2017-10-05T12:23:04.505Z,29.00
2017-10-05T12:25:34.194Z,30.10
2017-10-05T12:28:04.543Z,31.10
2017-10-05T12:30:34.857Z,30.20
2017-10-05T12:33:05.454Z,30.30
2017-10-05T12:35:35.385Z,30.30
2017-10-05T12:38:04.917Z,31.30
2017-10-05T12:40:35.247Z,30.80
2017-10-05T12:43:05.072Z,30.80
2017-10-05T12:45:34.630Z,30.70
2017-10-05T12:48:04.241Z,30.40
2017-10-05T12:50:33.780Z,30.40
2017-10-05T12:53:03.315Z,29.10
2017-10-05T12:55:32.990Z,28.50
2017-10-05T12:58:03.314Z,27.60
2017-10-05T13:00:33.661Z,27.00
2017-10-05T13:03:03.666Z,26.90
2017-10-05T13:05:33.376Z,26.70
2017-10-05T13:08:03.751Z,25.70
2017-10-05T13:10:33.295Z,25.70
2017-10-05T13:13:03.566Z,25.40
2017-10-05T13:15:33.131Z,25.40
2017-10-05T13:18:03.926Z,25.30
2017-10-05T13:20:33.463Z,25.40
2017-10-05T13:23:03.223Z,25.40
2017-10-05T13:25:32.788Z,25.10
2017-10-05T13:28:02.899Z,25.20
2017-10-05T13:30:32.632Z,25.00
2017-10-05T13:33:02.563Z,24.90
2017-10-05T13:35:32.341Z,24.90
2017-10-05T13:38:02.671Z,24.80
2017-10-05T13:40:32.983Z,24.60
2017-10-05T13:43:02.547Z,24.60
2017-10-05T13:45:32.090Z,24.70
2017-10-05T13:48:01.688Z,24.80
2017-10-05T13:50:39.067Z,24.70
2017-10-05T13:53:09.066Z,24.70
2017-10-05T13:55:38.735Z,24.70
2017-10-05T13:58:08.631Z,24.60
2017-10-05T14:00:38.390Z,24.60
2017-10-05T14:03:08.016Z,24.50
2017-10-05T14:05:37.745Z,24.60
2017-10-05T14:08:07.387Z,24.70
2017-10-05T14:10:37.769Z,24.80
2017-10-05T14:13:07.362Z,24.80
2017-10-05T14:15:37.061Z,24.70
2017-10-05T14:18:06.942Z,24.40
2017-10-05T14:20:37.506Z,24.30
2017-10-05T14:23:07.515Z,24.30
2017-10-05T14:25:37.183Z,24.30
2017-10-05T14:28:06.832Z,24.30
2017-10-05T14:30:36.535Z,24.20
2017-10-05T14:33:06.423Z,24.30
2017-10-05T14:35:36.819Z,24.40
2017-10-05T14:38:06.467Z,24.40
2017-10-05T14:40:37.095Z,24.20
2017-10-05T14:43:07.701Z,24.10
2017-10-05T14:45:37.408Z,24.10
2017-10-05T14:48:07.453Z,23.90
2017-10-05T14:50:37.875Z,23.70
2017-10-05T14:53:08.097Z,23.70
2017-10-05T14:55:38.133Z,23.60
2017-10-05T14:58:08.607Z,23.60
2017-10-05T15:00:38.827Z,23.60
2017-10-05T15:03:08.984Z,23.70
2017-10-05T15:05:38.897Z,23.60
2017-10-05T15:08:08.782Z,23.50
2017-10-05T15:10:38.732Z,23.60
2017-10-05T15:13:09.176Z,23.50
2017-10-05T15:15:40.775Z,23.40
2017-10-05T15:18:11.211Z,23.40
2017-10-05T15:20:41.104Z,23.30
2017-10-05T15:23:10.874Z,23.40
2017-10-05T15:25:41.723Z,23.20
2017-10-05T15:28:11.787Z,23.20
2017-10-05T15:30:42.503Z,23.30
2017-10-05T15:33:12.233Z,23.20
2017-10-05T15:35:43.871Z,23.20
2017-10-05T15:38:14.263Z,23.20
2017-10-05T15:40:44.260Z,23.00
2017-10-05T15:43:14.534Z,23.10
2017-10-05T15:45:44.266Z,23.10
2017-10-05T15:48:17.535Z,23.00
2017-10-05T15:50:47.986Z,23.00
2017-10-05T15:53:17.685Z,22.90
2017-10-05T15:55:47.659Z,22.80
2017-10-05T15:58:18.496Z,23.10
2017-10-05T16:00:48.990Z,23.10
2017-10-05T16:03:20.175Z,23.00
2017-10-05T16:05:49.955Z,22.90
2017-10-05T16:08:19.852Z,23.00
2017-10-05T16:10:49.891Z,22.90
2017-10-05T16:13:19.899Z,22.80
2017-10-05T16:15:49.482Z,22.80
2017-10-05T16:18:19.664Z,22.80
2017-10-05T16:20:49.346Z,22.60
2017-10-05T16:23:28.831Z,22.60
2017-10-05T16:25:58.956Z,22.50
2017-10-05T16:28:30.087Z,22.70
2017-10-05T16:30:59.848Z,22.70
2017-10-05T16:33:29.678Z,22.80
2017-10-05T16:35:59.709Z,22.80
2017-10-05T16:38:30.650Z,22.50
2017-10-05T16:41:00.288Z,22.50
2017-10-05T16:43:30.063Z,22.50
2017-10-05T16:45:59.892Z,22.50
2017-10-05T16:48:30.199Z,22.50
2017-10-05T16:50:59.874Z,22.50
2017-10-05T16:53:30.427Z,22.40
2017-10-05T16:56:01.168Z,22.40
2017-10-05T16:58:30.711Z,22.40
2017-10-05T17:01:00.389Z,22.30
2017-10-05T17:03:31.038Z,22.20
2017-10-05T17:06:01.415Z,22.00
2017-10-05T17:08:32.000Z,21.60
2017-10-05T17:11:02.458Z,21.10
2017-10-05T17:13:32.011Z,21.10
2017-10-05T17:16:01.855Z,20.40
2017-10-05T17:18:32.209Z,19.30
2017-10-05T17:21:01.884Z,19.30
2017-10-05T17:23:31.539Z,19.00
2017-10-05T17:26:01.229Z,18.90
2017-10-05T17:28:30.946Z,18.80
2017-10-05T17:31:00.538Z,18.80
2017-10-05T17:33:30.447Z,18.50
2017-10-05T17:36:00.103Z,18.30
2017-10-05T17:38:29.768Z,18.10
2017-10-05T17:40:59.370Z,18.00
2017-10-05T17:43:29.911Z,17.50
2017-10-05T17:46:00.548Z,17.40
2017-10-05T17:48:30.503Z,16.90
2017-10-05T17:51:00.174Z,16.60
2017-10-05T17:53:30.504Z,16.40
2017-10-05T17:56:00.305Z,16.10
2017-10-05T17:58:30.729Z,15.80
2017-10-05T18:01:00.577Z,16.00
2017-10-05T18:03:30.323Z,15.80
2017-10-05T18:06:01.475Z,15.70
2017-10-05T18:08:32.768Z,15.50
2017-10-05T18:11:03.105Z,15.40
2017-10-05T18:13:37.361Z,15.50
2017-10-05T18:16:10.159Z,15.40
2017-10-05T18:18:41.008Z,15.50
2017-10-05T18:21:10.607Z,15.50
2017-10-05T18:23:40.264Z,15.60
2017-10-05T18:26:10.228Z,15.50
2017-10-05T18:28:39.909Z,15.30
2017-10-05T18:31:10.266Z,15.50
2017-10-05T18:33:39.943Z,15.50
2017-10-05T18:36:10.695Z,15.50
2017-10-05T18:38:40.810Z,15.50
2017-10-05T18:41:10.694Z,15.50
2017-10-05T18:43:40.636Z,15.70
2017-10-05T18:46:11.033Z,15.60
2017-10-05T18:48:40.786Z,15.70
2017-10-05T18:51:10.748Z,15.00
2017-10-05T18:53:41.273Z,14.90
2017-10-05T18:56:11.319Z,15.20
2017-10-05T18:58:43.549Z,14.90
2017-10-05T19:01:13.167Z,14.90
2017-10-05T19:03:43.432Z,14.80
2017-10-05T19:06:13.003Z,15.00
2017-10-05T19:08:43.352Z,15.00
2017-10-05T19:11:21.288Z,14.40
2017-10-05T19:13:53.412Z,14.50
2017-10-05T19:16:23.435Z,14.50
2017-10-05T19:18:52.984Z,14.70
2017-10-05T19:21:23.914Z,14.30
2017-10-05T19:23:54.188Z,14.30
2017-10-05T19:26:23.963Z,14.30
2017-10-05T19:28:53.593Z,14.30
2017-10-05T19:31:23.570Z,14.40
2017-10-05T19:33:54.233Z,14.30
2017-10-05T19:36:24.920Z,14.30
2017-10-05T19:38:55.268Z,14.20
2017-10-05T19:41:26.028Z,14.00
2017-10-05T19:43:58.238Z,14.00
2017-10-05T19:46:28.964Z,14.20
2017-10-05T19:48:58.647Z,13.70
2017-10-05T19:51:29.232Z,13.50
2017-10-05T19:53:59.705Z,13.50
2017-10-05T19:56:29.638Z,13.50
2017-10-05T19:58:59.205Z,13.60
2017-10-05T20:01:30.345Z,13.70
2017-10-05T20:04:01.653Z,14.00
2017-10-05T20:06:32.211Z,14.00
2017-10-05T20:09:02.584Z,13.80
2017-10-05T20:11:33.328Z,14.00
2017-10-05T20:14:03.011Z,13.90
2017-10-05T20:16:32.703Z,14.10
2017-10-05T20:19:04.085Z,14.30
2017-10-05T20:21:33.738Z,14.30
2017-10-05T20:24:04.166Z,13.70
2017-10-05T20:26:35.474Z,13.90
2017-10-05T20:29:05.801Z,13.90
2017-10-05T20:31:35.806Z,13.90
2017-10-05T20:34:05.657Z,13.70
2017-10-05T20:36:35.609Z,13.50
2017-10-05T20:39:06.355Z,13.40
2017-10-05T20:41:36.668Z,13.40
2017-10-05T20:44:07.433Z,12.50
2017-10-05T20:46:37.845Z,12.50
2017-10-05T20:49:07.864Z,12.90
2017-10-05T20:51:37.520Z,12.90
2017-10-05T20:54:07.663Z,13.00
2017-10-05T20:56:37.915Z,12.90
2017-10-05T20:59:07.824Z,12.70
2017-10-05T21:01:38.106Z,12.30
2017-10-05T21:04:08.732Z,12.10
2017-10-05T21:06:38.602Z,12.10
2017-10-05T21:09:09.048Z,12.20
2017-10-05T21:11:39.375Z,12.20
2017-10-05T21:14:09.721Z,12.20
2017-10-05T21:16:41.210Z,12.10
2017-10-05T21:19:11.115Z,12.10
2017-10-05T21:21:40.888Z,11.90
2017-10-05T21:24:11.324Z,11.80
2017-10-05T21:26:41.314Z,11.90
2017-10-05T21:29:10.852Z,11.90
2017-10-05T21:31:40.683Z,11.90
2017-10-05T21:34:10.226Z,12.10
2017-10-05T21:36:39.771Z,11.90
2017-10-05T21:39:09.928Z,12.00
2017-10-05T21:41:40.409Z,11.30
2017-10-05T21:44:10.062Z,11.30
2017-10-05T21:46:40.537Z,11.40
2017-10-05T21:49:10.531Z,11.30
2017-10-05T21:51:40.598Z,11.20
2017-10-05T21:54:10.736Z,11.30
2017-10-05T21:56:40.712Z,11.10
2017-10-05T21:59:10.515Z,11.40
2017-10-05T22:01:40.339Z,11.20
2017-10-05T22:04:10.480Z,10.90
2017-10-05T22:06:40.413Z,11.10
2017-10-05T22:09:10.576Z,11.30
2017-10-05T22:11:41.107Z,11.40
2017-10-05T22:14:10.973Z,11.50
2017-10-05T22:16:41.628Z,10.90
2017-10-05T22:19:11.911Z,10.90
2017-10-05T22:21:41.700Z,10.90
2017-10-05T22:24:12.558Z,11.10
2017-10-05T22:26:42.311Z,11.00
2017-10-05T22:29:12.408Z,11.10
2017-10-05T22:31:42.581Z,11.20
2017-10-05T22:34:12.501Z,11.00
2017-10-05T22:36:42.484Z,11.10
2017-10-05T22:39:12.799Z,11.10
2017-10-05T22:41:42.863Z,11.30
2017-10-05T22:44:12.804Z,11.40
2017-10-05T22:46:42.706Z,11.00
2017-10-05T22:49:13.176Z,11.30
2017-10-05T22:51:43.140Z,11.20
2017-10-05T22:54:13.719Z,11.00
2017-10-05T22:56:44.560Z,11.00
2017-10-05T22:59:14.598Z,11.00
2017-10-05T23:01:44.706Z,10.70
2017-10-05T23:04:15.253Z,10.20
2017-10-05T23:06:46.888Z,10.40
2017-10-05T23:09:17.393Z,10.40
2017-10-05T23:11:47.195Z,10.20
2017-10-05T23:14:19.186Z,10.50
2017-10-05T23:16:49.285Z,10.50
2017-10-05T23:19:20.415Z,10.60
2017-10-05T23:21:50.257Z,10.60
2017-10-05T23:24:20.853Z,10.70
2017-10-05T23:26:51.676Z,10.70
2017-10-05T23:29:21.741Z,10.70
2017-10-05T23:31:51.808Z,10.80
2017-10-05T23:34:21.830Z,10.90
2017-10-05T23:36:52.903Z,11.00
2017-10-05T23:39:23.823Z,10.60
2017-10-05T23:41:53.551Z,10.60
2017-10-05T23:44:24.053Z,10.50
2017-10-05T23:46:53.793Z,10.50
2017-10-05T23:49:24.383Z,10.50
2017-10-05T23:51:54.086Z,10.50
2017-10-05T23:54:23.704Z,10.70
2017-10-05T23:56:53.565Z,10.70
2017-10-05T23:59:23.556Z,10.50
